CheckWX is a tool to help pilots better visualize weather data.  It is not intended as a substitute for an official pre-flight weather briefing.

03:37:02 UTC

KQEY METAR
Geumsan Rws
Geumsan Rws, South Korea
Current

17 mins ago

KQEY 260320Z AUTO 19006G11KT 9999 CLR 31/05 A2967 RMK A02 TSNO
Observed
May-26 @ 03:20 UTC
Wind
  • 190° at 6 KTS
  • Gusting to 11 KTS
Visibility
10,000+ meters
Flight Rules
VFR
Cloud Levels
  • Clear skies
Temperature
31°C / 88°F
Dewpoint
C / 41°F
Humidity
19%
Altimeter
29.67" Hg
Pressure
1004.72 hPa
Previous

27 mins ago

KQEY 260310Z AUTO 17007G15KT 9999 CLR 30/04 A2968 RMK A02 TSNO
Observed
May-26 @ 03:10 UTC
Wind
  • 170° at 7 KTS
  • Gusting to 15 KTS
Visibility
10,000+ meters
Flight Rules
VFR
Cloud Levels
  • Clear skies
Temperature
30°C / 86°F
Dewpoint
C / 39°F
Humidity
19%
Altimeter
29.68" Hg
Pressure
1005.12 hPa
Previous

37 mins ago

KQEY 260300Z AUTO 23005G13KT 9999 CLR 31/04 A2968 RMK A02 TSNO
Observed
May-26 @ 03:00 UTC
Wind
  • 230° at 5 KTS
  • Gusting to 13 KTS
Visibility
10,000+ meters
Flight Rules
VFR
Cloud Levels
  • Clear skies
Temperature
31°C / 88°F
Dewpoint
C / 39°F
Humidity
18%
Altimeter
29.68" Hg
Pressure
1005.12 hPa